sensor_id;sensor_type;location;lat;lon;timestamp;P1;durP1;ratioP1;P2;durP2;ratioP2
52112;SDS011;38109;49.488;31.988;2023-04-23T00:00:50;4.25;;;2.78;;
52112;SDS011;38109;49.488;31.988;2023-04-23T00:03:18;4.75;;;2.88;;
52112;SDS011;38109;49.488;31.988;2023-04-23T00:05:47;4.07;;;3.05;;
52112;SDS011;38109;49.488;31.988;2023-04-23T00:08:16;4.50;;;2.80;;
52112;SDS011;38109;49.488;31.988;2023-04-23T00:10:43;4.55;;;2.88;;
52112;SDS011;38109;49.488;31.988;2023-04-23T00:13:09;3.80;;;2.80;;
52112;SDS011;38109;49.488;31.988;2023-04-23T00:15:35;5.63;;;3.03;;
52112;SDS011;38109;49.488;31.988;2023-04-23T00:18:01;6.90;;;3.92;;
52112;SDS011;38109;49.488;31.988;2023-04-23T00:20:26;8.27;;;4.70;;
52112;SDS011;38109;49.488;31.988;2023-04-23T00:22:52;8.05;;;4.50;;
52112;SDS011;38109;49.488;31.988;2023-04-23T00:25:18;8.32;;;4.70;;
52112;SDS011;38109;49.488;31.988;2023-04-23T00:27:43;6.63;;;3.97;;
52112;SDS011;38109;49.488;31.988;2023-04-23T00:30:09;7.15;;;3.95;;
52112;SDS011;38109;49.488;31.988;2023-04-23T00:32:35;10.30;;;5.22;;
52112;SDS011;38109;49.488;31.988;2023-04-23T00:35:01;19.67;;;10.45;;
52112;SDS011;38109;49.488;31.988;2023-04-23T00:37:26;23.23;;;12.07;;
52112;SDS011;38109;49.488;31.988;2023-04-23T00:39:52;18.42;;;9.10;;
52112;SDS011;38109;49.488;31.988;2023-04-23T00:42:18;13.55;;;7.28;;
52112;SDS011;38109;49.488;31.988;2023-04-23T00:44:44;10.85;;;5.70;;
52112;SDS011;38109;49.488;31.988;2023-04-23T00:47:10;7.28;;;4.47;;
52112;SDS011;38109;49.488;31.988;2023-04-23T00:49:36;6.78;;;4.00;;
52112;SDS011;38109;49.488;31.988;2023-04-23T00:52:03;6.40;;;3.95;;
52112;SDS011;38109;49.488;31.988;2023-04-23T00:54:29;5.90;;;3.83;;
52112;SDS011;38109;49.488;31.988;2023-04-23T00:56:55;7.30;;;4.35;;
52112;SDS011;38109;49.488;31.988;2023-04-23T00:59:29;8.50;;;4.72;;
52112;SDS011;38109;49.488;31.988;2023-04-23T01:01:56;7.72;;;4.63;;
52112;SDS011;38109;49.488;31.988;2023-04-23T01:04:22;5.80;;;3.70;;
52112;SDS011;38109;49.488;31.988;2023-04-23T01:06:51;5.93;;;3.58;;
52112;SDS011;38109;49.488;31.988;2023-04-23T01:09:17;6.57;;;3.80;;
52112;SDS011;38109;49.488;31.988;2023-04-23T01:11:43;5.65;;;2.92;;
52112;SDS011;38109;49.488;31.988;2023-04-23T01:14:11;4.25;;;3.03;;
52112;SDS011;38109;49.488;31.988;2023-04-23T01:16:36;5.03;;;3.03;;
52112;SDS011;38109;49.488;31.988;2023-04-23T01:19:03;4.25;;;2.75;;
52112;SDS011;38109;49.488;31.988;2023-04-23T01:21:30;3.92;;;3.03;;
52112;SDS011;38109;49.488;31.988;2023-04-23T01:23:58;4.55;;;2.97;;
52112;SDS011;38109;49.488;31.988;2023-04-23T01:26:24;5.18;;;3.13;;
52112;SDS011;38109;49.488;31.988;2023-04-23T01:28:50;4.07;;;2.95;;
52112;SDS011;38109;49.488;31.988;2023-04-23T01:31:16;4.57;;;3.00;;
52112;SDS011;38109;49.488;31.988;2023-04-23T01:33:43;5.25;;;3.17;;
52112;SDS011;38109;49.488;31.988;2023-04-23T01:36:09;4.10;;;2.78;;
52112;SDS011;38109;49.488;31.988;2023-04-23T01:38:35;3.65;;;2.97;;
52112;SDS011;38109;49.488;31.988;2023-04-23T01:41:02;5.32;;;3.28;;
52112;SDS011;38109;49.488;31.988;2023-04-23T01:43:29;4.80;;;2.83;;
52112;SDS011;38109;49.488;31.988;2023-04-23T01:45:56;7.60;;;3.78;;
52112;SDS011;38109;49.488;31.988;2023-04-23T01:48:22;4.07;;;3.30;;
52112;SDS011;38109;49.488;31.988;2023-04-23T01:50:49;5.63;;;3.80;;
52112;SDS011;38109;49.488;31.988;2023-04-23T01:53:16;5.60;;;3.60;;
52112;SDS011;38109;49.488;31.988;2023-04-23T01:55:42;5.03;;;3.45;;
52112;SDS011;38109;49.488;31.988;2023-04-23T01:58:11;4.68;;;3.60;;
52112;SDS011;38109;49.488;31.988;2023-04-23T02:00:37;4.72;;;3.40;;
52112;SDS011;38109;49.488;31.988;2023-04-23T02:03:02;5.88;;;3.25;;
52112;SDS011;38109;49.488;31.988;2023-04-23T02:05:28;4.57;;;3.40;;
52112;SDS011;38109;49.488;31.988;2023-04-23T02:07:55;4.40;;;3.00;;
52112;SDS011;38109;49.488;31.988;2023-04-23T02:10:21;5.07;;;3.47;;
52112;SDS011;38109;49.488;31.988;2023-04-23T02:12:46;5.18;;;3.10;;
52112;SDS011;38109;49.488;31.988;2023-04-23T02:15:12;5.45;;;3.10;;
52112;SDS011;38109;49.488;31.988;2023-04-23T02:17:39;4.57;;;3.05;;
52112;SDS011;38109;49.488;31.988;2023-04-23T02:20:06;4.30;;;2.60;;
52112;SDS011;38109;49.488;31.988;2023-04-23T02:22:33;5.47;;;3.33;;
52112;SDS011;38109;49.488;31.988;2023-04-23T02:25:01;5.57;;;2.78;;
52112;SDS011;38109;49.488;31.988;2023-04-23T02:27:26;4.93;;;3.20;;
52112;SDS011;38109;49.488;31.988;2023-04-23T02:29:52;4.82;;;3.20;;
52112;SDS011;38109;49.488;31.988;2023-04-23T02:32:18;4.57;;;3.55;;
52112;SDS011;38109;49.488;31.988;2023-04-23T02:34:44;4.72;;;3.40;;
52112;SDS011;38109;49.488;31.988;2023-04-23T02:37:10;4.88;;;3.40;;
52112;SDS011;38109;49.488;31.988;2023-04-23T02:39:36;4.28;;;3.00;;
52112;SDS011;38109;49.488;31.988;2023-04-23T02:42:03;4.40;;;2.90;;
52112;SDS011;38109;49.488;31.988;2023-04-23T02:44:28;35.90;;;15.18;;
52112;SDS011;38109;49.488;31.988;2023-04-23T02:46:54;82.18;;;32.70;;
52112;SDS011;38109;49.488;31.988;2023-04-23T02:49:20;65.50;;;27.25;;
52112;SDS011;38109;49.488;31.988;2023-04-23T02:51:46;36.05;;;18.00;;
52112;SDS011;38109;49.488;31.988;2023-04-23T02:54:11;38.83;;;19.15;;
52112;SDS011;38109;49.488;31.988;2023-04-23T02:56:37;41.15;;;19.15;;
52112;SDS011;38109;49.488;31.988;2023-04-23T02:59:03;27.58;;;13.85;;
52112;SDS011;38109;49.488;31.988;2023-04-23T03:01:30;25.85;;;12.50;;
52112;SDS011;38109;49.488;31.988;2023-04-23T03:03:56;21.40;;;10.93;;
52112;SDS011;38109;49.488;31.988;2023-04-23T03:06:22;18.05;;;9.25;;
52112;SDS011;38109;49.488;31.988;2023-04-23T03:08:48;19.50;;;9.80;;
52112;SDS011;38109;49.488;31.988;2023-04-23T03:11:13;20.13;;;10.13;;
52112;SDS011;38109;49.488;31.988;2023-04-23T03:13:39;13.52;;;8.27;;
52112;SDS011;38109;49.488;31.988;2023-04-23T03:16:05;12.18;;;7.38;;
52112;SDS011;38109;49.488;31.988;2023-04-23T03:18:31;9.38;;;6.35;;
52112;SDS011;38109;49.488;31.988;2023-04-23T03:20:57;8.00;;;5.65;;
52112;SDS011;38109;49.488;31.988;2023-04-23T03:23:23;9.98;;;6.10;;
52112;SDS011;38109;49.488;31.988;2023-04-23T03:25:48;10.85;;;6.20;;
52112;SDS011;38109;49.488;31.988;2023-04-23T03:28:14;10.65;;;6.57;;
52112;SDS011;38109;49.488;31.988;2023-04-23T03:30:41;36.75;;;15.90;;
52112;SDS011;38109;49.488;31.988;2023-04-23T03:33:07;156.23;;;51.83;;
52112;SDS011;38109;49.488;31.988;2023-04-23T03:35:32;75.82;;;26.58;;
52112;SDS011;38109;49.488;31.988;2023-04-23T03:37:58;45.88;;;18.58;;
52112;SDS011;38109;49.488;31.988;2023-04-23T03:40:24;31.58;;;15.30;;
52112;SDS011;38109;49.488;31.988;2023-04-23T03:42:49;31.40;;;14.68;;
52112;SDS011;38109;49.488;31.988;2023-04-23T03:45:15;24.67;;;11.95;;
52112;SDS011;38109;49.488;31.988;2023-04-23T03:47:41;21.90;;;11.88;;
52112;SDS011;38109;49.488;31.988;2023-04-23T03:50:07;27.20;;;15.98;;
52112;SDS011;38109;49.488;31.988;2023-04-23T03:52:34;30.67;;;15.52;;
52112;SDS011;38109;49.488;31.988;2023-04-23T03:55:00;13.20;;;7.80;;
52112;SDS011;38109;49.488;31.988;2023-04-23T03:57:26;9.43;;;5.22;;
52112;SDS011;38109;49.488;31.988;2023-04-23T03:59:51;6.53;;;4.65;;
52112;SDS011;38109;49.488;31.988;2023-04-23T04:02:18;12.52;;;7.38;;
52112;SDS011;38109;49.488;31.988;2023-04-23T04:04:43;8.70;;;4.63;;
52112;SDS011;38109;49.488;31.988;2023-04-23T04:07:10;11.38;;;5.40;;
52112;SDS011;38109;49.488;31.988;2023-04-23T04:09:36;6.82;;;4.15;;
52112;SDS011;38109;49.488;31.988;2023-04-23T04:12:03;7.00;;;4.22;;
52112;SDS011;38109;49.488;31.988;2023-04-23T04:14:30;6.43;;;3.90;;
52112;SDS011;38109;49.488;31.988;2023-04-23T04:16:56;10.60;;;5.82;;
52112;SDS011;38109;49.488;31.988;2023-04-23T04:19:22;12.82;;;6.72;;
52112;SDS011;38109;49.488;31.988;2023-04-23T04:21:48;12.35;;;7.22;;
52112;SDS011;38109;49.488;31.988;2023-04-23T04:24:15;12.73;;;6.70;;
52112;SDS011;38109;49.488;31.988;2023-04-23T04:26:42;16.15;;;8.18;;
52112;SDS011;38109;49.488;31.988;2023-04-23T04:29:08;12.05;;;6.32;;
52112;SDS011;38109;49.488;31.988;2023-04-23T04:31:35;10.25;;;5.88;;
52112;SDS011;38109;49.488;31.988;2023-04-23T04:34:01;7.60;;;5.07;;
52112;SDS011;38109;49.488;31.988;2023-04-23T04:36:27;9.13;;;5.05;;
52112;SDS011;38109;49.488;31.988;2023-04-23T04:38:53;6.97;;;4.53;;
52112;SDS011;38109;49.488;31.988;2023-04-23T04:41:23;6.85;;;4.07;;
52112;SDS011;38109;49.488;31.988;2023-04-23T04:43:52;7.20;;;4.00;;
52112;SDS011;38109;49.488;31.988;2023-04-23T04:46:19;6.82;;;4.15;;
52112;SDS011;38109;49.488;31.988;2023-04-23T04:48:45;6.75;;;4.43;;
52112;SDS011;38109;49.488;31.988;2023-04-23T04:51:11;6.70;;;3.97;;
52112;SDS011;38109;49.488;31.988;2023-04-23T04:53:37;7.32;;;4.30;;
52112;SDS011;38109;49.488;31.988;2023-04-23T04:56:03;5.82;;;4.10;;
52112;SDS011;38109;49.488;31.988;2023-04-23T04:58:28;7.53;;;4.47;;
52112;SDS011;38109;49.488;31.988;2023-04-23T05:00:54;9.43;;;5.13;;
52112;SDS011;38109;49.488;31.988;2023-04-23T05:03:20;7.15;;;4.75;;
52112;SDS011;38109;49.488;31.988;2023-04-23T05:05:46;6.00;;;3.83;;
52112;SDS011;38109;49.488;31.988;2023-04-23T05:08:14;6.43;;;4.18;;
52112;SDS011;38109;49.488;31.988;2023-04-23T05:10:45;7.50;;;4.50;;
52112;SDS011;38109;49.488;31.988;2023-04-23T05:13:11;6.50;;;4.10;;
52112;SDS011;38109;49.488;31.988;2023-04-23T05:15:37;6.32;;;4.03;;
52112;SDS011;38109;49.488;31.988;2023-04-23T05:18:03;5.97;;;3.80;;
52112;SDS011;38109;49.488;31.988;2023-04-23T05:20:29;8.50;;;4.47;;
52112;SDS011;38109;49.488;31.988;2023-04-23T05:22:55;7.10;;;4.45;;
52112;SDS011;38109;49.488;31.988;2023-04-23T05:25:23;7.53;;;4.55;;
52112;SDS011;38109;49.488;31.988;2023-04-23T05:27:49;8.23;;;5.15;;
52112;SDS011;38109;49.488;31.988;2023-04-23T05:30:15;8.02;;;4.65;;
52112;SDS011;38109;49.488;31.988;2023-04-23T05:32:41;8.15;;;4.72;;
52112;SDS011;38109;49.488;31.988;2023-04-23T05:35:07;7.80;;;4.63;;
52112;SDS011;38109;49.488;31.988;2023-04-23T05:37:33;7.38;;;4.75;;
52112;SDS011;38109;49.488;31.988;2023-04-23T05:39:59;7.90;;;4.68;;
52112;SDS011;38109;49.488;31.988;2023-04-23T05:42:26;10.35;;;4.80;;
52112;SDS011;38109;49.488;31.988;2023-04-23T05:44:52;8.15;;;4.03;;
52112;SDS011;38109;49.488;31.988;2023-04-23T05:47:17;6.60;;;4.38;;
52112;SDS011;38109;49.488;31.988;2023-04-23T05:49:43;6.97;;;4.13;;
52112;SDS011;38109;49.488;31.988;2023-04-23T05:52:09;5.40;;;4.00;;
52112;SDS011;38109;49.488;31.988;2023-04-23T05:54:35;6.68;;;4.47;;
52112;SDS011;38109;49.488;31.988;2023-04-23T05:57:01;10.23;;;5.00;;
52112;SDS011;38109;49.488;31.988;2023-04-23T05:59:27;11.70;;;5.80;;
52112;SDS011;38109;49.488;31.988;2023-04-23T06:01:52;9.93;;;5.32;;
52112;SDS011;38109;49.488;31.988;2023-04-23T06:04:18;8.52;;;4.90;;
52112;SDS011;38109;49.488;31.988;2023-04-23T06:06:44;9.60;;;5.18;;
52112;SDS011;38109;49.488;31.988;2023-04-23T06:09:10;7.68;;;4.88;;
52112;SDS011;38109;49.488;31.988;2023-04-23T06:11:36;6.60;;;4.10;;
52112;SDS011;38109;49.488;31.988;2023-04-23T06:14:02;9.27;;;4.85;;
52112;SDS011;38109;49.488;31.988;2023-04-23T06:16:28;5.68;;;3.83;;
52112;SDS011;38109;49.488;31.988;2023-04-23T06:18:54;6.57;;;4.05;;
52112;SDS011;38109;49.488;31.988;2023-04-23T06:21:22;6.53;;;3.80;;
52112;SDS011;38109;49.488;31.988;2023-04-23T06:23:48;5.68;;;3.55;;
52112;SDS011;38109;49.488;31.988;2023-04-23T06:26:15;5.35;;;3.45;;
52112;SDS011;38109;49.488;31.988;2023-04-23T06:28:41;6.75;;;3.53;;
52112;SDS011;38109;49.488;31.988;2023-04-23T06:31:09;4.60;;;3.17;;
52112;SDS011;38109;49.488;31.988;2023-04-23T06:33:36;7.28;;;3.78;;
52112;SDS011;38109;49.488;31.988;2023-04-23T06:36:04;6.57;;;3.97;;
52112;SDS011;38109;49.488;31.988;2023-04-23T06:38:31;6.63;;;4.07;;
52112;SDS011;38109;49.488;31.988;2023-04-23T06:40:56;5.55;;;3.28;;
52112;SDS011;38109;49.488;31.988;2023-04-23T06:43:22;5.47;;;3.88;;
52112;SDS011;38109;49.488;31.988;2023-04-23T06:45:48;7.53;;;4.03;;
52112;SDS011;38109;49.488;31.988;2023-04-23T06:48:14;7.45;;;3.88;;
52112;SDS011;38109;49.488;31.988;2023-04-23T06:50:40;5.30;;;3.40;;
52112;SDS011;38109;49.488;31.988;2023-04-23T06:53:06;4.03;;;3.38;;
52112;SDS011;38109;49.488;31.988;2023-04-23T06:55:32;6.95;;;3.30;;
52112;SDS011;38109;49.488;31.988;2023-04-23T06:57:58;5.65;;;3.70;;
52112;SDS011;38109;49.488;31.988;2023-04-23T07:00:23;5.55;;;3.53;;
52112;SDS011;38109;49.488;31.988;2023-04-23T07:02:49;5.13;;;3.50;;
52112;SDS011;38109;49.488;31.988;2023-04-23T07:05:16;5.40;;;3.42;;
52112;SDS011;38109;49.488;31.988;2023-04-23T07:07:42;4.47;;;3.28;;
52112;SDS011;38109;49.488;31.988;2023-04-23T07:10:08;4.30;;;2.75;;
52112;SDS011;38109;49.488;31.988;2023-04-23T07:12:38;5.57;;;3.13;;
52112;SDS011;38109;49.488;31.988;2023-04-23T07:15:05;4.10;;;2.83;;
52112;SDS011;38109;49.488;31.988;2023-04-23T07:17:32;4.25;;;2.85;;
52112;SDS011;38109;49.488;31.988;2023-04-23T07:19:58;6.72;;;3.78;;
52112;SDS011;38109;49.488;31.988;2023-04-23T07:22:24;6.28;;;4.05;;
52112;SDS011;38109;49.488;31.988;2023-04-23T07:24:51;4.55;;;3.28;;
52112;SDS011;38109;49.488;31.988;2023-04-23T07:27:17;5.28;;;3.60;;
52112;SDS011;38109;49.488;31.988;2023-04-23T07:29:43;4.85;;;3.03;;
52112;SDS011;38109;49.488;31.988;2023-04-23T07:32:09;4.70;;;3.47;;
52112;SDS011;38109;49.488;31.988;2023-04-23T07:34:34;4.10;;;3.40;;
52112;SDS011;38109;49.488;31.988;2023-04-23T07:37:01;6.20;;;3.83;;
52112;SDS011;38109;49.488;31.988;2023-04-23T07:39:27;6.38;;;3.67;;
52112;SDS011;38109;49.488;31.988;2023-04-23T07:41:52;5.55;;;3.65;;
52112;SDS011;38109;49.488;31.988;2023-04-23T07:44:18;5.95;;;3.60;;
52112;SDS011;38109;49.488;31.988;2023-04-23T07:46:44;5.72;;;3.70;;
52112;SDS011;38109;49.488;31.988;2023-04-23T07:49:09;5.70;;;3.55;;
52112;SDS011;38109;49.488;31.988;2023-04-23T07:51:35;5.03;;;3.40;;
52112;SDS011;38109;49.488;31.988;2023-04-23T07:54:01;5.97;;;3.33;;
52112;SDS011;38109;49.488;31.988;2023-04-23T07:56:26;5.05;;;3.42;;
52112;SDS011;38109;49.488;31.988;2023-04-23T07:58:52;8.85;;;3.65;;
52112;SDS011;38109;49.488;31.988;2023-04-23T08:01:18;4.60;;;3.38;;
52112;SDS011;38109;49.488;31.988;2023-04-23T08:03:43;3.83;;;2.90;;
52112;SDS011;38109;49.488;31.988;2023-04-23T08:06:09;5.57;;;3.35;;
52112;SDS011;38109;49.488;31.988;2023-04-23T08:08:38;6.13;;;3.53;;
52112;SDS011;38109;49.488;31.988;2023-04-23T08:11:04;3.97;;;3.05;;
52112;SDS011;38109;49.488;31.988;2023-04-23T08:13:31;4.88;;;3.22;;
52112;SDS011;38109;49.488;31.988;2023-04-23T08:15:56;4.45;;;3.38;;
52112;SDS011;38109;49.488;31.988;2023-04-23T08:18:22;4.93;;;3.00;;
52112;SDS011;38109;49.488;31.988;2023-04-23T08:20:48;3.88;;;3.00;;
52112;SDS011;38109;49.488;31.988;2023-04-23T08:23:14;3.90;;;2.70;;
52112;SDS011;38109;49.488;31.988;2023-04-23T08:25:40;4.43;;;2.85;;
52112;SDS011;38109;49.488;31.988;2023-04-23T08:28:05;4.18;;;3.00;;
52112;SDS011;38109;49.488;31.988;2023-04-23T08:30:31;4.03;;;2.60;;
52112;SDS011;38109;49.488;31.988;2023-04-23T08:32:57;4.38;;;2.85;;
52112;SDS011;38109;49.488;31.988;2023-04-23T08:35:23;3.88;;;2.85;;
52112;SDS011;38109;49.488;31.988;2023-04-23T08:37:49;2.60;;;2.38;;
52112;SDS011;38109;49.488;31.988;2023-04-23T08:40:15;4.22;;;2.85;;
52112;SDS011;38109;49.488;31.988;2023-04-23T08:42:47;6.65;;;3.13;;
52112;SDS011;38109;49.488;31.988;2023-04-23T08:45:16;4.72;;;2.90;;
52112;SDS011;38109;49.488;31.988;2023-04-23T08:47:42;4.85;;;2.75;;
52112;SDS011;38109;49.488;31.988;2023-04-23T08:50:12;3.17;;;2.45;;
52112;SDS011;38109;49.488;31.988;2023-04-23T11:22:48;2.50;;;1.90;;
52112;SDS011;38109;49.488;31.988;2023-04-23T11:25:24;2.15;;;1.90;;
52112;SDS011;38109;49.488;31.988;2023-04-23T11:27:52;2.30;;;1.63;;
52112;SDS011;38109;49.488;31.988;2023-04-23T11:30:20;1.60;;;1.50;;
52112;SDS011;38109;49.488;31.988;2023-04-23T11:32:48;2.25;;;1.98;;
52112;SDS011;38109;49.488;31.988;2023-04-23T11:35:19;1.90;;;1.70;;
52112;SDS011;38109;49.488;31.988;2023-04-23T11:37:46;1.70;;;1.60;;
52112;SDS011;38109;49.488;31.988;2023-04-23T11:40:14;1.55;;;1.45;;
52112;SDS011;38109;49.488;31.988;2023-04-23T11:42:47;2.28;;;1.70;;
52112;SDS011;38109;49.488;31.988;2023-04-23T11:47:45;1.85;;;1.60;;
52112;SDS011;38109;49.488;31.988;2023-04-23T11:50:21;1.63;;;1.52;;
52112;SDS011;38109;49.488;31.988;2023-04-23T11:52:49;1.50;;;1.40;;
52112;SDS011;38109;49.488;31.988;2023-04-23T11:55:15;1.80;;;1.70;;
52112;SDS011;38109;49.488;31.988;2023-04-23T11:57:42;1.70;;;1.60;;
52112;SDS011;38109;49.488;31.988;2023-04-23T12:00:18;2.05;;;1.85;;
52112;SDS011;38109;49.488;31.988;2023-04-23T12:05:21;4.10;;;2.53;;
52112;SDS011;38109;49.488;31.988;2023-04-23T12:07:48;3.30;;;2.40;;
52112;SDS011;38109;49.488;31.988;2023-04-23T12:10:16;2.42;;;2.20;;
52112;SDS011;38109;49.488;31.988;2023-04-23T12:12:51;2.30;;;2.00;;
52112;SDS011;38109;49.488;31.988;2023-04-23T12:15:18;2.38;;;2.17;;
52112;SDS011;38109;49.488;31.988;2023-04-23T12:17:48;2.08;;;1.95;;
52112;SDS011;38109;49.488;31.988;2023-04-23T12:20:32;2.95;;;1.92;;
52112;SDS011;38109;49.488;31.988;2023-04-23T12:23:02;3.92;;;1.90;;
52112;SDS011;38109;49.488;31.988;2023-04-23T12:25:29;2.38;;;1.90;;
52112;SDS011;38109;49.488;31.988;2023-04-23T12:27:57;2.33;;;1.80;;
52112;SDS011;38109;49.488;31.988;2023-04-23T12:30:27;2.78;;;2.22;;
52112;SDS011;38109;49.488;31.988;2023-04-23T12:33:00;2.10;;;1.90;;
52112;SDS011;38109;49.488;31.988;2023-04-23T12:35:36;2.22;;;2.03;;
52112;SDS011;38109;49.488;31.988;2023-04-23T12:38:31;2.20;;;2.00;;
52112;SDS011;38109;49.488;31.988;2023-04-23T12:40:56;1.90;;;1.80;;
52112;SDS011;38109;49.488;31.988;2023-04-23T12:43:24;1.70;;;1.60;;
52112;SDS011;38109;49.488;31.988;2023-04-23T12:45:51;1.98;;;1.80;;
52112;SDS011;38109;49.488;31.988;2023-04-23T12:48:17;2.00;;;1.77;;
52112;SDS011;38109;49.488;31.988;2023-04-23T12:50:46;3.10;;;2.05;;
52112;SDS011;38109;49.488;31.988;2023-04-23T12:56:00;1.80;;;1.70;;
52112;SDS011;38109;49.488;31.988;2023-04-23T12:58:26;2.63;;;2.20;;
52112;SDS011;38109;49.488;31.988;2023-04-23T13:00:52;2.10;;;1.80;;
52112;SDS011;38109;49.488;31.988;2023-04-23T13:03:17;2.40;;;1.90;;
52112;SDS011;38109;49.488;31.988;2023-04-23T13:05:43;2.00;;;1.90;;
52112;SDS011;38109;49.488;31.988;2023-04-23T13:08:08;2.08;;;1.90;;
52112;SDS011;38109;49.488;31.988;2023-04-23T13:10:34;2.00;;;1.83;;
52112;SDS011;38109;49.488;31.988;2023-04-23T13:13:00;2.25;;;1.80;;
52112;SDS011;38109;49.488;31.988;2023-04-23T13:15:25;3.42;;;1.90;;
52112;SDS011;38109;49.488;31.988;2023-04-23T13:17:51;2.03;;;1.83;;
52112;SDS011;38109;49.488;31.988;2023-04-23T13:20:16;1.90;;;1.70;;
52112;SDS011;38109;49.488;31.988;2023-04-23T13:22:42;1.90;;;1.80;;
52112;SDS011;38109;49.488;31.988;2023-04-23T13:25:08;2.17;;;2.00;;
52112;SDS011;38109;49.488;31.988;2023-04-23T13:27:34;1.92;;;1.80;;
52112;SDS011;38109;49.488;31.988;2023-04-23T13:30:00;2.10;;;1.90;;
52112;SDS011;38109;49.488;31.988;2023-04-23T13:32:25;2.20;;;1.90;;
52112;SDS011;38109;49.488;31.988;2023-04-23T13:34:55;2.00;;;1.90;;
52112;SDS011;38109;49.488;31.988;2023-04-23T13:37:24;2.03;;;1.92;;
52112;SDS011;38109;49.488;31.988;2023-04-23T13:39:51;1.80;;;1.70;;
52112;SDS011;38109;49.488;31.988;2023-04-23T13:42:17;1.95;;;1.85;;
52112;SDS011;38109;49.488;31.988;2023-04-23T13:44:43;2.20;;;2.00;;
52112;SDS011;38109;49.488;31.988;2023-04-23T13:47:08;1.92;;;1.83;;
52112;SDS011;38109;49.488;31.988;2023-04-23T13:49:34;2.03;;;1.92;;
52112;SDS011;38109;49.488;31.988;2023-04-23T13:52:01;2.10;;;2.00;;
52112;SDS011;38109;49.488;31.988;2023-04-23T13:54:30;2.33;;;1.98;;
52112;SDS011;38109;49.488;31.988;2023-04-23T13:56:56;2.03;;;1.90;;
52112;SDS011;38109;49.488;31.988;2023-04-23T13:59:22;2.40;;;2.20;;
52112;SDS011;38109;49.488;31.988;2023-04-23T14:01:48;3.05;;;2.08;;
52112;SDS011;38109;49.488;31.988;2023-04-23T14:04:14;2.58;;;2.10;;
52112;SDS011;38109;49.488;31.988;2023-04-23T14:06:41;2.45;;;2.25;;
52112;SDS011;38109;49.488;31.988;2023-04-23T14:09:07;2.40;;;2.20;;
52112;SDS011;38109;49.488;31.988;2023-04-23T14:11:32;2.22;;;2.03;;
52112;SDS011;38109;49.488;31.988;2023-04-23T14:13:58;2.17;;;1.98;;
52112;SDS011;38109;49.488;31.988;2023-04-23T14:16:25;2.30;;;2.10;;
52112;SDS011;38109;49.488;31.988;2023-04-23T14:18:51;2.20;;;2.00;;
52112;SDS011;38109;49.488;31.988;2023-04-23T14:21:17;2.13;;;1.90;;
52112;SDS011;38109;49.488;31.988;2023-04-23T14:27:04;1.75;;;1.65;;
52112;SDS011;38109;49.488;31.988;2023-04-23T14:31:59;3.08;;;2.17;;
52112;SDS011;38109;49.488;31.988;2023-04-23T14:34:25;2.20;;;2.00;;
52112;SDS011;38109;49.488;31.988;2023-04-23T14:36:55;2.03;;;1.92;;
52112;SDS011;38109;49.488;31.988;2023-04-23T14:42:44;2.28;;;2.10;;
52112;SDS011;38109;49.488;31.988;2023-04-23T14:45:11;2.47;;;2.28;;
52112;SDS011;38109;49.488;31.988;2023-04-23T14:47:38;2.00;;;1.90;;
52112;SDS011;38109;49.488;31.988;2023-04-23T14:50:04;2.10;;;2.00;;
52112;SDS011;38109;49.488;31.988;2023-04-23T14:52:30;2.33;;;2.13;;
52112;SDS011;38109;49.488;31.988;2023-04-23T14:54:56;2.47;;;2.28;;
52112;SDS011;38109;49.488;31.988;2023-04-23T14:57:22;2.33;;;2.10;;
52112;SDS011;38109;49.488;31.988;2023-04-23T14:59:47;2.20;;;2.00;;
52112;SDS011;38109;49.488;31.988;2023-04-23T15:02:13;3.15;;;2.45;;
52112;SDS011;38109;49.488;31.988;2023-04-23T15:04:39;3.10;;;2.20;;
52112;SDS011;38109;49.488;31.988;2023-04-23T15:07:04;2.58;;;2.38;;
52112;SDS011;38109;49.488;31.988;2023-04-23T15:09:30;2.35;;;2.25;;
52112;SDS011;38109;49.488;31.988;2023-04-23T15:11:56;2.38;;;2.22;;
52112;SDS011;38109;49.488;31.988;2023-04-23T15:14:28;2.40;;;2.20;;
52112;SDS011;38109;49.488;31.988;2023-04-23T15:20:32;2.50;;;2.30;;
52112;SDS011;38109;49.488;31.988;2023-04-23T15:22:57;2.42;;;2.22;;
52112;SDS011;38109;49.488;31.988;2023-04-23T15:25:23;3.20;;;2.33;;
52112;SDS011;38109;49.488;31.988;2023-04-23T15:27:49;2.80;;;2.47;;
52112;SDS011;38109;49.488;31.988;2023-04-23T15:33:08;4.75;;;4.18;;
52112;SDS011;38109;49.488;31.988;2023-04-23T15:35:34;3.53;;;3.22;;
52112;SDS011;38109;49.488;31.988;2023-04-23T15:38:00;3.08;;;2.42;;
52112;SDS011;38109;49.488;31.988;2023-04-23T15:40:26;2.47;;;2.28;;
52112;SDS011;38109;49.488;31.988;2023-04-23T15:42:53;3.05;;;2.42;;
52112;SDS011;38109;49.488;31.988;2023-04-23T15:45:19;2.40;;;2.20;;
52112;SDS011;38109;49.488;31.988;2023-04-23T15:51:07;3.13;;;2.40;;
52112;SDS011;38109;49.488;31.988;2023-04-23T15:53:33;2.60;;;2.38;;
52112;SDS011;38109;49.488;31.988;2023-04-23T15:55:59;3.45;;;2.40;;
52112;SDS011;38109;49.488;31.988;2023-04-23T15:58:25;2.50;;;2.30;;
52112;SDS011;38109;49.488;31.988;2023-04-23T16:00:50;3.55;;;3.05;;
52112;SDS011;38109;49.488;31.988;2023-04-23T16:03:16;8.82;;;5.78;;
52112;SDS011;38109;49.488;31.988;2023-04-23T16:05:41;9.38;;;6.18;;
52112;SDS011;38109;49.488;31.988;2023-04-23T16:08:08;9.13;;;5.88;;
52112;SDS011;38109;49.488;31.988;2023-04-23T16:10:36;9.52;;;5.97;;
52112;SDS011;38109;49.488;31.988;2023-04-23T16:13:02;9.27;;;5.22;;
52112;SDS011;38109;49.488;31.988;2023-04-23T16:15:28;5.82;;;3.95;;
52112;SDS011;38109;49.488;31.988;2023-04-23T16:17:53;4.55;;;3.10;;
52112;SDS011;38109;49.488;31.988;2023-04-23T16:20:21;4.15;;;2.70;;
52112;SDS011;38109;49.488;31.988;2023-04-23T16:22:47;6.72;;;2.70;;
52112;SDS011;38109;49.488;31.988;2023-04-23T16:25:13;2.40;;;2.20;;
52112;SDS011;38109;49.488;31.988;2023-04-23T16:27:38;3.50;;;2.72;;
52112;SDS011;38109;49.488;31.988;2023-04-23T16:30:04;6.50;;;4.63;;
52112;SDS011;38109;49.488;31.988;2023-04-23T16:32:30;15.25;;;9.48;;
52112;SDS011;38109;49.488;31.988;2023-04-23T16:34:56;20.10;;;13.40;;
52112;SDS011;38109;49.488;31.988;2023-04-23T16:37:22;20.13;;;13.27;;
52112;SDS011;38109;49.488;31.988;2023-04-23T16:39:47;15.15;;;10.75;;
52112;SDS011;38109;49.488;31.988;2023-04-23T16:42:13;14.55;;;9.15;;
52112;SDS011;38109;49.488;31.988;2023-04-23T16:44:39;12.63;;;8.68;;
52112;SDS011;38109;49.488;31.988;2023-04-23T16:47:04;12.80;;;8.60;;
52112;SDS011;38109;49.488;31.988;2023-04-23T16:49:30;19.98;;;9.52;;
52112;SDS011;38109;49.488;31.988;2023-04-23T16:51:56;21.48;;;9.35;;
52112;SDS011;38109;49.488;31.988;2023-04-23T16:54:21;16.50;;;7.57;;
52112;SDS011;38109;49.488;31.988;2023-04-23T16:56:47;10.60;;;5.82;;
52112;SDS011;38109;49.488;31.988;2023-04-23T16:59:13;8.43;;;5.00;;
52112;SDS011;38109;49.488;31.988;2023-04-23T17:01:41;6.43;;;4.22;;
52112;SDS011;38109;49.488;31.988;2023-04-23T17:04:07;3.75;;;3.10;;
52112;SDS011;38109;49.488;31.988;2023-04-23T17:06:32;4.65;;;3.30;;
52112;SDS011;38109;49.488;31.988;2023-04-23T17:09:00;4.15;;;3.20;;
52112;SDS011;38109;49.488;31.988;2023-04-23T17:11:27;4.10;;;3.20;;
52112;SDS011;38109;49.488;31.988;2023-04-23T17:13:54;6.05;;;3.97;;
52112;SDS011;38109;49.488;31.988;2023-04-23T17:16:20;6.43;;;4.70;;
52112;SDS011;38109;49.488;31.988;2023-04-23T17:18:46;6.80;;;4.80;;
52112;SDS011;38109;49.488;31.988;2023-04-23T17:21:12;7.68;;;5.15;;
52112;SDS011;38109;49.488;31.988;2023-04-23T17:23:37;7.75;;;5.57;;